createdAt,value
2017-07-04T00:00:58.883Z,1010.0
2017-07-04T00:02:00.256Z,1010.0
2017-07-04T00:03:01.626Z,1010.0
2017-07-04T00:04:03.008Z,1010.0
2017-07-04T00:05:04.471Z,1010.0
2017-07-04T00:06:05.850Z,1009.9
2017-07-04T00:07:07.220Z,1009.9
2017-07-04T00:08:08.589Z,1009.9
2017-07-04T00:09:09.964Z,1010.0
2017-07-04T00:10:11.337Z,1009.9
2017-07-04T00:11:12.711Z,1010.0
2017-07-04T00:12:14.089Z,1010.0
2017-07-04T00:13:15.459Z,1010.0
2017-07-04T00:14:16.833Z,1009.9
2017-07-04T00:15:18.202Z,1009.9
2017-07-04T00:16:19.572Z,1009.9
2017-07-04T00:17:20.945Z,1009.9
2017-07-04T00:18:22.316Z,1009.9
2017-07-04T00:19:23.689Z,1009.8
2017-07-04T00:20:25.058Z,1009.9
2017-07-04T00:21:26.429Z,1009.9
2017-07-04T00:22:27.798Z,1009.8
2017-07-04T00:23:29.171Z,1009.9
2017-07-04T00:24:30.548Z,1009.8
2017-07-04T00:25:31.920Z,1009.9
2017-07-04T00:26:33.294Z,1009.8
2017-07-04T00:27:34.669Z,1009.8
2017-07-04T00:28:36.042Z,1009.9
2017-07-04T00:29:37.412Z,1009.9
2017-07-04T00:30:38.786Z,1009.9
2017-07-04T00:31:40.158Z,1009.9
2017-07-04T00:32:41.530Z,1009.9
2017-07-04T00:33:42.905Z,1009.9
2017-07-04T00:34:44.278Z,1009.9
2017-07-04T00:35:45.647Z,1009.9
2017-07-04T00:36:47.020Z,1009.9
2017-07-04T00:37:48.394Z,1009.9
2017-07-04T00:38:49.767Z,1009.9
2017-07-04T00:39:51.139Z,1009.9
2017-07-04T00:40:52.509Z,1009.9
2017-07-04T00:41:53.882Z,1009.9
2017-07-04T00:42:55.256Z,1009.9
2017-07-04T00:43:56.628Z,1009.9
2017-07-04T00:44:58.000Z,1009.9
2017-07-04T00:45:59.372Z,1009.9
2017-07-04T00:47:00.746Z,1009.9
2017-07-04T00:48:02.123Z,1009.8
2017-07-04T00:49:03.489Z,1009.9
2017-07-04T00:50:04.873Z,1009.8
2017-07-04T00:51:06.244Z,1009.8
2017-07-04T00:52:07.654Z,1009.8
2017-07-04T00:53:08.989Z,1009.8
2017-07-04T00:54:10.363Z,1009.8
2017-07-04T00:55:11.740Z,1009.8
2017-07-04T00:56:13.108Z,1009.8
2017-07-04T00:57:14.480Z,1009.9
2017-07-04T00:58:15.915Z,1009.9
2017-07-04T00:59:17.289Z,1009.9
2017-07-04T01:00:18.666Z,1009.9
2017-07-04T01:01:20.108Z,1009.9
2017-07-04T01:02:21.493Z,1009.9
2017-07-04T01:03:22.880Z,1009.9
2017-07-04T01:04:24.284Z,1009.9
2017-07-04T01:05:25.749Z,1009.9
2017-07-04T01:06:27.224Z,1009.8
2017-07-04T01:07:28.717Z,1009.8
2017-07-04T01:08:30.169Z,1009.8
2017-07-04T01:09:31.543Z,1009.8
2017-07-04T01:10:32.951Z,1009.8
2017-07-04T01:11:34.341Z,1009.8
2017-07-04T01:12:35.739Z,1009.8
2017-07-04T01:13:37.127Z,1009.8
2017-07-04T01:14:38.524Z,1009.8
2017-07-04T01:15:39.935Z,1009.8
2017-07-04T01:16:41.330Z,1009.8
2017-07-04T01:17:42.768Z,1009.9
2017-07-04T01:18:44.149Z,1009.8
2017-07-04T01:19:45.523Z,1009.8
2017-07-04T01:20:46.939Z,1009.9
2017-07-04T01:21:48.406Z,1009.8
2017-07-04T01:22:49.835Z,1009.9
2017-07-04T01:23:51.233Z,1009.8
2017-07-04T01:24:52.606Z,1009.9
2017-07-04T01:25:53.979Z,1009.8
2017-07-04T01:26:55.351Z,1009.8
2017-07-04T01:27:56.723Z,1009.8
2017-07-04T01:28:58.094Z,1009.8
2017-07-04T01:29:59.469Z,1009.8
2017-07-04T01:31:00.875Z,1009.8
2017-07-04T01:32:02.249Z,1009.8
2017-07-04T01:33:03.616Z,1009.9
2017-07-04T01:34:04.990Z,1009.8
2017-07-04T01:35:06.361Z,1009.9
2017-07-04T01:36:07.734Z,1009.9
2017-07-04T01:37:09.108Z,1009.8
2017-07-04T01:38:10.480Z,1009.8
2017-07-04T01:39:11.849Z,1009.8
2017-07-04T01:40:13.220Z,1009.9
2017-07-04T01:41:14.592Z,1009.8
2017-07-04T01:42:15.964Z,1009.8
2017-07-04T01:43:17.339Z,1009.8
2017-07-04T01:44:18.714Z,1009.8
2017-07-04T01:45:20.085Z,1009.8
2017-07-04T01:46:21.456Z,1009.8
2017-07-04T01:47:22.825Z,1009.8
2017-07-04T01:48:24.196Z,1009.8
2017-07-04T01:49:25.568Z,1009.8
2017-07-04T01:50:26.939Z,1009.8
2017-07-04T01:51:28.313Z,1009.8
2017-07-04T01:52:29.684Z,1009.7
2017-07-04T01:53:31.059Z,1009.8
2017-07-04T01:54:32.433Z,1009.7
2017-07-04T01:55:33.803Z,1009.8
2017-07-04T01:56:35.174Z,1009.8
2017-07-04T01:57:36.548Z,1009.8
2017-07-04T01:58:37.918Z,1009.8
2017-07-04T01:59:39.293Z,1009.8
2017-07-04T02:00:40.664Z,1009.8
2017-07-04T02:01:42.034Z,1009.8
2017-07-04T02:02:43.408Z,1009.8
2017-07-04T02:03:44.780Z,1009.8
2017-07-04T02:04:46.150Z,1009.8
2017-07-04T02:05:47.524Z,1009.8
2017-07-04T02:06:48.896Z,1009.8
2017-07-04T02:07:50.265Z,1009.8
2017-07-04T02:08:51.635Z,1009.8
2017-07-04T02:09:53.010Z,1009.8
2017-07-04T02:10:54.385Z,1009.8
2017-07-04T02:11:55.753Z,1009.7
2017-07-04T02:12:57.129Z,1009.8
2017-07-04T02:13:58.505Z,1009.8
2017-07-04T02:14:59.874Z,1009.7
2017-07-04T02:16:01.249Z,1009.8
2017-07-04T02:17:02.626Z,1009.8
2017-07-04T02:18:03.994Z,1009.8
2017-07-04T02:19:05.367Z,1009.8
2017-07-04T02:20:06.756Z,1009.8
2017-07-04T02:21:08.162Z,1009.8
2017-07-04T02:22:09.554Z,1009.9
2017-07-04T02:23:10.952Z,1009.9
2017-07-04T02:24:12.318Z,1009.9
2017-07-04T02:25:13.733Z,1009.9
2017-07-04T02:26:15.112Z,1009.9
2017-07-04T02:27:16.501Z,1009.9
2017-07-04T02:28:17.892Z,1009.8
2017-07-04T02:29:19.326Z,1009.9
2017-07-04T02:30:20.703Z,1009.9
2017-07-04T02:31:22.077Z,1009.9
2017-07-04T02:32:23.447Z,1009.9
2017-07-04T02:33:24.910Z,1009.9
2017-07-04T02:34:26.346Z,1009.9
2017-07-04T02:35:27.719Z,1009.9
2017-07-04T02:36:29.197Z,1009.8
2017-07-04T02:37:30.593Z,1009.9
2017-07-04T02:38:31.979Z,1009.8
2017-07-04T02:39:33.386Z,1009.8
2017-07-04T02:40:34.770Z,1009.9
2017-07-04T02:41:36.136Z,1009.8
2017-07-04T02:42:37.606Z,1009.9
2017-07-04T02:43:38.968Z,1009.9
2017-07-04T02:44:40.343Z,1009.8
2017-07-04T02:45:41.749Z,1009.9
2017-07-04T02:46:43.180Z,1009.9
2017-07-04T02:47:44.674Z,1009.9
2017-07-04T02:48:46.132Z,1009.9
2017-07-04T02:49:47.503Z,1010.0
2017-07-04T02:50:48.874Z,1010.0
2017-07-04T02:51:50.241Z,1010.0
2017-07-04T02:52:51.613Z,1009.9
2017-07-04T02:53:52.985Z,1010.0
2017-07-04T02:54:54.358Z,1010.0
2017-07-04T02:55:55.730Z,1010.0
2017-07-04T02:56:57.109Z,1010.0
2017-07-04T02:57:58.474Z,1010.0
2017-07-04T02:58:59.844Z,1010.0
2017-07-04T03:00:01.218Z,1010.0
2017-07-04T03:01:02.591Z,1010.0
2017-07-04T03:02:03.965Z,1010.0
2017-07-04T03:03:05.346Z,1010.0
2017-07-04T03:04:06.741Z,1010.0
2017-07-04T03:05:08.114Z,1010.0
2017-07-04T03:06:09.488Z,1010.0
2017-07-04T03:07:10.858Z,1009.9
2017-07-04T03:08:12.230Z,1010.0
2017-07-04T03:09:13.601Z,1010.0
2017-07-04T03:10:14.974Z,1010.0
2017-07-04T03:11:16.354Z,1010.0
2017-07-04T03:12:17.727Z,1010.0
2017-07-04T03:13:19.104Z,1010.0
2017-07-04T03:14:20.487Z,1010.0
2017-07-04T03:15:21.876Z,1010.0
2017-07-04T03:16:23.263Z,1010.0
2017-07-04T03:17:24.637Z,1010.0
2017-07-04T03:18:26.019Z,1010.0
2017-07-04T03:19:27.413Z,1010.1
2017-07-04T03:20:28.800Z,1010.1
2017-07-04T03:21:30.184Z,1010.0
2017-07-04T03:22:31.557Z,1010.0
2017-07-04T03:23:32.944Z,1010.1
2017-07-04T03:24:34.331Z,1010.1
2017-07-04T03:25:35.722Z,1010.1
2017-07-04T03:26:37.095Z,1010.1
2017-07-04T03:27:38.469Z,1010.0
2017-07-04T03:28:39.843Z,1010.1
2017-07-04T03:29:41.215Z,1010.1
2017-07-04T03:30:42.588Z,1010.1
2017-07-04T03:31:43.962Z,1010.1
2017-07-04T03:32:45.336Z,1010.0
2017-07-04T03:33:46.707Z,1010.1
2017-07-04T03:34:48.078Z,1010.1
2017-07-04T03:35:49.454Z,1010.1
2017-07-04T03:36:50.834Z,1010.0
2017-07-04T03:37:52.210Z,1010.1
2017-07-04T03:38:53.583Z,1010.1
2017-07-04T03:39:55.023Z,1010.1
2017-07-04T03:40:56.398Z,1010.1
2017-07-04T03:41:57.788Z,1010.1
2017-07-04T03:42:59.191Z,1010.1
2017-07-04T03:44:00.596Z,1010.1
2017-07-04T03:45:02.002Z,1010.1
2017-07-04T03:46:03.408Z,1010.1
2017-07-04T03:47:04.821Z,1010.1
2017-07-04T03:48:06.202Z,1010.1
2017-07-04T03:49:07.599Z,1010.1
2017-07-04T03:50:08.992Z,1010.1
2017-07-04T03:51:10.381Z,1010.1
2017-07-04T03:52:11.775Z,1010.1
2017-07-04T03:53:13.198Z,1010.1
2017-07-04T03:54:14.605Z,1010.1
2017-07-04T03:55:16.026Z,1010.1
2017-07-04T03:56:17.402Z,1010.2
2017-07-04T03:57:18.814Z,1010.2
2017-07-04T03:58:20.261Z,1010.2
2017-07-04T03:59:21.646Z,1010.2
2017-07-04T04:00:23.016Z,1010.2
2017-07-04T04:01:24.396Z,1010.2
2017-07-04T04:02:25.771Z,1010.2
2017-07-04T04:03:27.143Z,1010.2
2017-07-04T04:04:28.516Z,1010.3
2017-07-04T04:05:29.889Z,1010.3
2017-07-04T04:06:31.264Z,1010.3
2017-07-04T04:07:32.641Z,1010.3
2017-07-04T04:08:34.013Z,1010.3
2017-07-04T04:09:35.391Z,1010.3
2017-07-04T04:10:36.762Z,1010.3
2017-07-04T04:11:38.135Z,1010.3
2017-07-04T04:12:39.511Z,1010.2
2017-07-04T04:13:40.886Z,1010.3
2017-07-04T04:14:42.261Z,1010.3
2017-07-04T04:15:43.637Z,1010.3
2017-07-04T04:16:45.014Z,1010.3
2017-07-04T04:17:46.381Z,1010.3
2017-07-04T04:18:47.757Z,1010.3
2017-07-04T04:19:49.129Z,1010.3
2017-07-04T04:20:50.503Z,1010.3
2017-07-04T04:21:51.877Z,1010.3
2017-07-04T04:22:53.251Z,1010.3
2017-07-04T04:23:54.631Z,1010.3
2017-07-04T04:24:56.005Z,1010.3
2017-07-04T04:25:57.379Z,1010.3
2017-07-04T04:26:58.755Z,1010.3
2017-07-04T04:28:00.126Z,1010.3
2017-07-04T04:29:01.502Z,1010.3
2017-07-04T04:30:02.881Z,1010.3
2017-07-04T04:31:04.253Z,1010.3
2017-07-04T04:32:05.629Z,1010.4
2017-07-04T04:33:07.006Z,1010.4
2017-07-04T04:34:08.381Z,1010.4
2017-07-04T04:35:09.753Z,1010.4
2017-07-04T04:36:11.130Z,1010.4
2017-07-04T04:37:12.507Z,1010.4
2017-07-04T04:38:13.884Z,1010.4
2017-07-04T04:39:15.257Z,1010.4
2017-07-04T04:40:16.633Z,1010.4
2017-07-04T04:41:18.009Z,1010.5
2017-07-04T04:42:19.388Z,1010.5
2017-07-04T04:43:20.759Z,1010.5
2017-07-04T04:44:22.134Z,1010.4
2017-07-04T04:45:23.508Z,1010.5
2017-07-04T04:46:24.881Z,1010.5
2017-07-04T04:47:26.253Z,1010.5
2017-07-04T04:48:27.634Z,1010.5
2017-07-04T04:49:29.000Z,1010.5
2017-07-04T04:50:30.381Z,1010.5
2017-07-04T04:51:31.756Z,1010.5
2017-07-04T04:52:33.128Z,1010.6
2017-07-04T04:53:34.502Z,1010.5
2017-07-04T04:54:35.874Z,1010.5
2017-07-04T04:55:37.251Z,1010.5
2017-07-04T04:56:38.626Z,1010.5
2017-07-04T04:57:39.999Z,1010.5
2017-07-04T04:58:41.379Z,1010.5
2017-07-04T04:59:42.749Z,1010.5
2017-07-04T05:00:44.122Z,1010.5
2017-07-04T05:01:45.505Z,1010.5
2017-07-04T05:02:46.872Z,1010.6
2017-07-04T05:03:48.247Z,1010.5
2017-07-04T05:04:49.629Z,1010.5
2017-07-04T05:05:50.998Z,1010.5
2017-07-04T05:06:52.371Z,1010.5
2017-07-04T05:07:53.747Z,1010.5
2017-07-04T05:08:55.121Z,1010.5
2017-07-04T05:09:56.501Z,1010.5
2017-07-04T05:10:57.868Z,1010.5
2017-07-04T05:11:59.245Z,1010.5
2017-07-04T05:13:00.624Z,1010.4
2017-07-04T05:14:01.995Z,1010.4
2017-07-04T05:15:03.371Z,1010.5
2017-07-04T05:16:04.742Z,1010.4
2017-07-04T05:17:06.114Z,1010.4
2017-07-04T05:18:07.491Z,1010.5
2017-07-04T05:19:08.867Z,1010.5
2017-07-04T05:20:10.253Z,1010.5
2017-07-04T05:21:11.624Z,1010.5
2017-07-04T05:22:12.995Z,1010.6
2017-07-04T05:23:14.368Z,1010.6
2017-07-04T05:24:15.741Z,1010.6
2017-07-04T05:25:17.116Z,1010.6
2017-07-04T05:26:18.489Z,1010.6
2017-07-04T05:27:19.866Z,1010.6
2017-07-04T05:28:21.238Z,1010.6
2017-07-04T05:29:22.609Z,1010.6
2017-07-04T05:30:23.982Z,1010.6
2017-07-04T05:31:25.367Z,1010.6
2017-07-04T05:32:26.741Z,1010.6
2017-07-04T05:33:28.121Z,1010.6
2017-07-04T05:34:29.497Z,1010.6
2017-07-04T05:35:30.867Z,1010.6
2017-07-04T05:36:32.242Z,1010.6
2017-07-04T05:37:33.618Z,1010.6
2017-07-04T05:38:34.991Z,1010.6
2017-07-04T05:39:36.391Z,1010.6
2017-07-04T05:40:37.765Z,1010.6
2017-07-04T05:41:39.143Z,1010.6
2017-07-04T05:42:40.528Z,1010.7
2017-07-04T05:43:41.899Z,1010.6
2017-07-04T05:44:43.270Z,1010.6
2017-07-04T05:45:44.645Z,1010.7
2017-07-04T05:46:46.021Z,1010.7
2017-07-04T05:47:47.399Z,1010.7
2017-07-04T05:48:48.816Z,1010.7
2017-07-04T05:49:50.189Z,1010.7
2017-07-04T05:50:51.564Z,1010.7
2017-07-04T05:51:52.937Z,1010.8
2017-07-04T05:52:54.311Z,1010.8
2017-07-04T05:53:55.685Z,1010.8
2017-07-04T05:54:57.060Z,1010.8
2017-07-04T05:55:58.439Z,1010.8
2017-07-04T05:56:59.812Z,1010.9
2017-07-04T05:58:01.187Z,1010.8
2017-07-04T05:59:02.559Z,1010.9
2017-07-04T06:00:03.935Z,1010.9
2017-07-04T06:01:05.311Z,1010.9
2017-07-04T06:02:06.684Z,1010.9
2017-07-04T06:03:08.062Z,1010.9
2017-07-04T06:04:09.438Z,1010.9
2017-07-04T06:05:10.811Z,1010.9
2017-07-04T06:06:12.186Z,1010.8
2017-07-04T06:07:13.559Z,1010.8
2017-07-04T06:08:14.934Z,1010.9
2017-07-04T06:09:16.315Z,1010.9
2017-07-04T06:10:17.691Z,1010.9
2017-07-04T06:11:19.067Z,1010.9
2017-07-04T06:12:20.440Z,1010.9
2017-07-04T06:13:21.821Z,1010.9
2017-07-04T06:14:23.190Z,1010.9
2017-07-04T06:15:24.565Z,1011.0
2017-07-04T06:16:25.946Z,1010.9
2017-07-04T06:17:27.312Z,1011.0
2017-07-04T06:18:28.689Z,1010.9
2017-07-04T06:19:30.065Z,1011.0
2017-07-04T06:20:31.439Z,1011.0
2017-07-04T06:21:32.820Z,1011.0
2017-07-04T06:22:34.201Z,1011.0
2017-07-04T06:23:35.572Z,1011.0
2017-07-04T06:24:36.952Z,1011.0
2017-07-04T06:25:38.325Z,1011.0
2017-07-04T06:26:39.696Z,1011.1
2017-07-04T06:27:41.070Z,1011.0
2017-07-04T06:28:42.446Z,1011.0
2017-07-04T06:29:43.880Z,1011.0
2017-07-04T06:30:45.256Z,1011.0
2017-07-04T06:31:46.631Z,1011.0
2017-07-04T06:32:48.005Z,1011.1
2017-07-04T06:33:49.378Z,1011.1
2017-07-04T06:34:50.754Z,1011.1
2017-07-04T06:35:52.129Z,1011.1
2017-07-04T06:36:53.505Z,1011.2
2017-07-04T06:37:54.883Z,1011.2
2017-07-04T06:38:56.258Z,1011.1
2017-07-04T06:39:57.631Z,1011.1
2017-07-04T06:40:59.004Z,1011.2
2017-07-04T06:42:00.376Z,1011.2
2017-07-04T06:43:01.751Z,1011.2
2017-07-04T06:44:03.127Z,1011.2
2017-07-04T06:45:04.501Z,1011.2
2017-07-04T06:46:05.880Z,1011.2
2017-07-04T06:47:07.257Z,1011.2
2017-07-04T06:48:08.629Z,1011.2
2017-07-04T06:49:10.010Z,1011.2
2017-07-04T06:50:11.381Z,1011.2
2017-07-04T06:51:12.755Z,1011.2
2017-07-04T06:52:14.132Z,1011.2
2017-07-04T06:53:15.506Z,1011.2
2017-07-04T06:54:16.877Z,1011.2
2017-07-04T06:55:18.253Z,1011.2
2017-07-04T06:56:19.626Z,1011.2
2017-07-04T06:57:21.002Z,1011.2
2017-07-04T06:58:22.378Z,1011.2
2017-07-04T06:59:23.756Z,1011.3
2017-07-04T07:00:25.135Z,1011.3
2017-07-04T07:01:26.508Z,1011.3
2017-07-04T07:02:27.887Z,1011.3
2017-07-04T07:03:29.263Z,1011.4
2017-07-04T07:04:30.635Z,1011.3
2017-07-04T07:05:32.011Z,1011.3
2017-07-04T07:06:33.388Z,1011.4
2017-07-04T07:07:34.765Z,1011.4
2017-07-04T07:08:36.141Z,1011.4
2017-07-04T07:09:37.513Z,1011.4
2017-07-04T07:10:38.888Z,1011.4
2017-07-04T07:11:40.266Z,1011.4
2017-07-04T07:12:41.641Z,1011.4
2017-07-04T07:13:43.019Z,1011.4
2017-07-04T07:14:44.395Z,1011.4
2017-07-04T07:15:45.770Z,1011.4
2017-07-04T07:16:47.140Z,1011.4
2017-07-04T07:17:48.519Z,1011.4
2017-07-04T07:18:49.892Z,1011.4
2017-07-04T07:19:51.271Z,1011.4
2017-07-04T07:20:52.646Z,1011.4
2017-07-04T07:21:54.025Z,1011.5
2017-07-04T07:22:55.398Z,1011.5
2017-07-04T07:23:56.774Z,1011.5
2017-07-04T07:24:58.151Z,1011.5
2017-07-04T07:25:59.523Z,1011.6
2017-07-04T07:27:00.902Z,1011.6
2017-07-04T07:28:02.278Z,1011.6
2017-07-04T07:29:43.148Z,1011.5
2017-07-04T07:30:44.523Z,1011.6
2017-07-04T07:32:05.990Z,1011.6
2017-07-04T07:33:07.364Z,1011.6
2017-07-04T07:34:28.839Z,1011.6
2017-07-04T07:35:30.213Z,1011.6
2017-07-04T07:36:51.707Z,1011.5
2017-07-04T07:37:53.086Z,1011.5
2017-07-04T07:39:14.555Z,1011.6
2017-07-04T07:40:15.927Z,1011.7
2017-07-04T07:41:37.405Z,1011.6
2017-07-04T07:42:38.787Z,1011.6
2017-07-04T07:44:00.261Z,1011.6
2017-07-04T07:45:01.635Z,1011.6
2017-07-04T07:46:23.108Z,1011.6
2017-07-04T07:47:24.478Z,1011.6
2017-07-04T07:48:45.953Z,1011.6
2017-07-04T07:49:47.327Z,1011.6
2017-07-04T07:51:08.810Z,1011.6
2017-07-04T07:52:10.185Z,1011.5
2017-07-04T07:53:31.660Z,1011.5
2017-07-04T07:54:33.034Z,1011.5
2017-07-04T07:55:54.508Z,1011.5
2017-07-04T07:56:55.885Z,1011.5
2017-07-04T07:58:17.384Z,1011.5
2017-07-04T07:59:18.752Z,1011.5
2017-07-04T08:00:40.221Z,1011.5
2017-07-04T08:01:41.591Z,1011.6
2017-07-04T08:03:03.064Z,1011.6
2017-07-04T08:04:04.440Z,1011.6
2017-07-04T08:05:25.930Z,1011.6
2017-07-04T08:06:27.305Z,1011.6
2017-07-04T08:07:48.775Z,1011.6
2017-07-04T08:08:50.151Z,1011.6
2017-07-04T08:10:11.615Z,1011.6
2017-07-04T08:11:12.985Z,1011.6
2017-07-04T08:12:34.474Z,1011.6
2017-07-04T08:13:35.851Z,1011.6
2017-07-04T08:14:57.318Z,1011.6
2017-07-04T08:15:58.692Z,1011.6
2017-07-04T08:17:20.162Z,1011.6
2017-07-04T08:18:21.536Z,1011.6
2017-07-04T08:19:43.029Z,1011.6
2017-07-04T08:20:44.401Z,1011.6
2017-07-04T08:22:05.869Z,1011.6
2017-07-04T08:23:07.243Z,1011.6
2017-07-04T08:24:28.710Z,1011.6
2017-07-04T08:25:30.083Z,1011.6
2017-07-04T08:26:51.571Z,1011.6
2017-07-04T08:27:52.945Z,1011.6
2017-07-04T08:29:14.412Z,1011.7
2017-07-04T08:30:15.787Z,1011.6
2017-07-04T08:31:37.256Z,1011.7
2017-07-04T08:32:38.630Z,1011.6
2017-07-04T08:34:00.118Z,1011.6
2017-07-04T08:35:01.497Z,1011.6
2017-07-04T08:36:22.962Z,1011.6
2017-07-04T08:37:24.337Z,1011.6
2017-07-04T08:38:45.809Z,1011.5
2017-07-04T08:39:47.181Z,1011.5
2017-07-04T08:41:08.661Z,1011.6
2017-07-04T08:42:10.033Z,1011.6
2017-07-04T08:43:31.504Z,1011.5
2017-07-04T08:44:32.877Z,1011.6
2017-07-04T08:45:54.356Z,1011.6
2017-07-04T08:46:55.727Z,1011.5
2017-07-04T08:48:17.226Z,1011.5
2017-07-04T08:49:18.601Z,1011.5
2017-07-04T08:50:40.068Z,1011.5
2017-07-04T08:51:41.440Z,1011.5
2017-07-04T08:53:02.909Z,1011.5
2017-07-04T08:54:04.283Z,1011.5
2017-07-04T08:55:25.777Z,1011.5
2017-07-04T08:56:27.151Z,1011.5
2017-07-04T08:57:48.618Z,1011.5
2017-07-04T08:58:49.990Z,1011.5
2017-07-04T09:00:11.462Z,1011.5
2017-07-04T09:01:12.834Z,1011.6
2017-07-04T09:02:34.332Z,1011.5
2017-07-04T09:03:35.740Z,1011.6
2017-07-04T09:04:57.210Z,1011.6
2017-07-04T09:05:58.583Z,1011.6
2017-07-04T09:07:20.054Z,1011.5
2017-07-04T09:08:21.430Z,1011.6
2017-07-04T09:09:42.919Z,1011.6
2017-07-04T09:10:44.296Z,1011.5
2017-07-04T09:12:05.776Z,1011.5
2017-07-04T09:13:07.149Z,1011.6
2017-07-04T09:14:28.625Z,1011.6
2017-07-04T09:15:29.997Z,1011.5
2017-07-04T09:16:51.479Z,1011.5
2017-07-04T09:17:52.853Z,1011.6
2017-07-04T09:19:14.321Z,1011.5
2017-07-04T09:20:15.693Z,1011.6
2017-07-04T09:21:37.170Z,1011.6
2017-07-04T09:22:38.547Z,1011.6
2017-07-04T09:24:00.035Z,1011.6
2017-07-04T09:25:01.411Z,1011.6
2017-07-04T09:26:22.893Z,1011.6
2017-07-04T09:27:24.269Z,1011.6
2017-07-04T09:28:45.738Z,1011.6
2017-07-04T09:29:47.110Z,1011.7
2017-07-04T09:31:08.592Z,1011.7
2017-07-04T09:32:09.971Z,1011.7
2017-07-04T09:33:31.435Z,1011.7
2017-07-04T09:34:32.816Z,1011.7
2017-07-04T09:35:54.288Z,1011.7
2017-07-04T09:36:55.670Z,1011.7
2017-07-04T09:38:17.154Z,1011.7
2017-07-04T09:39:18.528Z,1011.7
2017-07-04T09:40:39.998Z,1011.7
2017-07-04T09:41:41.372Z,1011.7
2017-07-04T09:43:02.840Z,1011.7
2017-07-04T09:44:04.211Z,1011.7
2017-07-04T09:45:25.697Z,1011.7
2017-07-04T09:46:27.070Z,1011.7
2017-07-04T09:47:48.541Z,1011.7
2017-07-04T09:48:49.915Z,1011.7
2017-07-04T09:50:11.385Z,1011.7
2017-07-04T09:51:12.759Z,1011.7
2017-07-04T09:52:34.239Z,1011.7
2017-07-04T09:53:35.615Z,1011.7
2017-07-04T09:54:57.088Z,1011.6
2017-07-04T09:55:58.458Z,1011.7
2017-07-04T09:57:19.936Z,1011.6
2017-07-04T09:58:21.310Z,1011.6
2017-07-04T09:59:42.831Z,1011.6
2017-07-04T10:00:44.192Z,1011.6
2017-07-04T10:02:05.661Z,1011.6
2017-07-04T10:03:07.035Z,1011.6
2017-07-04T10:04:28.504Z,1011.6
2017-07-04T10:05:29.879Z,1011.6
2017-07-04T10:06:51.363Z,1011.6
2017-07-04T10:07:52.735Z,1011.6
2017-07-04T10:09:14.210Z,1011.6
2017-07-04T10:10:15.584Z,1011.6
2017-07-04T10:11:37.128Z,1011.6
2017-07-04T10:12:38.500Z,1011.6
2017-07-04T10:13:59.999Z,1011.6
2017-07-04T10:15:01.371Z,1011.6
2017-07-04T10:16:22.935Z,1011.6
2017-07-04T10:17:24.312Z,1011.6
2017-07-04T10:18:45.889Z,1011.6
2017-07-04T10:19:47.263Z,1011.6
2017-07-04T10:21:08.780Z,1011.6
2017-07-04T10:22:10.145Z,1011.5
2017-07-04T10:23:31.693Z,1011.5
2017-07-04T10:24:33.070Z,1011.5
2017-07-04T10:25:54.646Z,1011.5
2017-07-04T10:26:56.020Z,1011.6
2017-07-04T10:28:17.521Z,1011.6
2017-07-04T10:29:18.896Z,1011.5
2017-07-04T10:30:40.449Z,1011.5
2017-07-04T10:31:41.823Z,1011.5
2017-07-04T10:33:03.296Z,1011.5
2017-07-04T10:34:04.675Z,1011.5
2017-07-04T10:35:26.274Z,1011.5
2017-07-04T10:36:27.646Z,1011.5
2017-07-04T10:37:49.199Z,1011.5
2017-07-04T10:38:50.574Z,1011.5
2017-07-04T10:40:12.060Z,1011.5
2017-07-04T10:41:13.437Z,1011.5
2017-07-04T10:42:35.032Z,1011.5
2017-07-04T10:43:36.405Z,1011.4
2017-07-04T10:44:57.968Z,1011.4
2017-07-04T10:45:59.344Z,1011.4
2017-07-04T10:47:20.914Z,1011.4
2017-07-04T10:48:22.291Z,1011.4
2017-07-04T10:49:43.883Z,1011.4
2017-07-04T10:50:45.256Z,1011.4
2017-07-04T10:52:06.817Z,1011.4
2017-07-04T10:53:08.190Z,1011.4
2017-07-04T10:54:29.675Z,1011.4
2017-07-04T10:55:31.051Z,1011.4
2017-07-04T10:56:52.634Z,1011.4
2017-07-04T10:57:54.006Z,1011.4
2017-07-04T10:59:15.578Z,1011.3
2017-07-04T11:00:16.953Z,1011.4
2017-07-04T11:01:38.525Z,1011.3
2017-07-04T11:02:39.904Z,1011.4
2017-07-04T11:04:01.501Z,1011.3
2017-07-04T11:05:02.875Z,1011.4
2017-07-04T11:06:24.443Z,1011.3
2017-07-04T11:07:25.818Z,1011.4
2017-07-04T11:08:47.391Z,1011.3
2017-07-04T11:09:48.766Z,1011.3
2017-07-04T11:11:10.370Z,1011.3
2017-07-04T11:12:11.748Z,1011.3
2017-07-04T11:13:33.298Z,1011.3
2017-07-04T11:14:34.669Z,1011.3
2017-07-04T11:15:56.151Z,1011.2
2017-07-04T11:16:57.526Z,1011.3
2017-07-04T11:18:19.124Z,1011.3
2017-07-04T11:19:20.498Z,1011.3
2017-07-04T11:20:42.056Z,1011.3
2017-07-04T11:21:43.434Z,1011.3
2017-07-04T11:23:05.004Z,1011.3
2017-07-04T11:24:06.379Z,1011.3
2017-07-04T11:25:27.977Z,1011.3
2017-07-04T11:26:29.350Z,1011.3
2017-07-04T11:27:50.914Z,1011.3
2017-07-04T11:28:52.289Z,1011.3
2017-07-04T11:30:13.865Z,1011.3
2017-07-04T11:31:15.238Z,1011.3
2017-07-04T11:32:36.740Z,1011.3
2017-07-04T11:33:38.113Z,1011.3
2017-07-04T11:34:59.667Z,1011.3
2017-07-04T11:36:01.040Z,1011.3
2017-07-04T11:37:22.615Z,1011.3
2017-07-04T11:38:23.991Z,1011.3
2017-07-04T11:39:45.471Z,1011.4
2017-07-04T11:40:46.843Z,1011.4
2017-07-04T11:42:08.315Z,1011.4
2017-07-04T11:43:09.687Z,1011.4
2017-07-04T11:44:31.157Z,1011.4
2017-07-04T11:45:32.532Z,1011.4
2017-07-04T11:46:54.015Z,1011.4
2017-07-04T11:47:55.391Z,1011.4
2017-07-04T11:49:16.869Z,1011.4
2017-07-04T11:50:18.236Z,1011.4
2017-07-04T11:51:39.705Z,1011.4
2017-07-04T11:52:41.078Z,1011.3
2017-07-04T11:54:03.350Z,1011.4
2017-07-04T11:55:04.725Z,1011.4
2017-07-04T11:56:26.207Z,1011.4
2017-07-04T11:57:27.578Z,1011.3
2017-07-04T11:58:49.055Z,1011.3
2017-07-04T11:59:50.430Z,1011.3
2017-07-04T12:01:11.913Z,1011.3
2017-07-04T12:02:13.287Z,1011.3
2017-07-04T12:03:34.755Z,1011.3
2017-07-04T12:04:36.128Z,1011.3
2017-07-04T12:05:57.598Z,1011.3
2017-07-04T12:06:58.972Z,1011.3
2017-07-04T12:08:20.459Z,1011.2
2017-07-04T12:09:21.834Z,1011.3
2017-07-04T12:10:43.303Z,1011.2
2017-07-04T12:11:44.680Z,1011.2
2017-07-04T12:13:06.154Z,1011.2
2017-07-04T12:14:07.527Z,1011.2
2017-07-04T12:15:29.013Z,1011.2
2017-07-04T12:16:30.391Z,1011.2
2017-07-04T12:17:51.864Z,1011.2
2017-07-04T12:18:53.235Z,1011.1
2017-07-04T12:20:14.707Z,1011.1
2017-07-04T12:21:55.575Z,1011.2
2017-07-04T12:22:56.948Z,1011.1
2017-07-04T12:24:18.430Z,1011.1
2017-07-04T12:25:19.796Z,1011.1
2017-07-04T12:26:41.274Z,1011.2
2017-07-04T12:27:42.647Z,1011.2
2017-07-04T12:29:04.143Z,1011.2
2017-07-04T12:30:05.518Z,1011.2
2017-07-04T12:31:26.983Z,1011.2
2017-07-04T12:32:28.357Z,1011.2
2017-07-04T12:33:49.827Z,1011.2
2017-07-04T12:34:51.199Z,1011.2
2017-07-04T12:36:12.687Z,1011.1
2017-07-04T12:37:14.064Z,1011.2
2017-07-04T12:38:35.531Z,1011.2
2017-07-04T12:39:36.905Z,1011.1
2017-07-04T12:40:58.372Z,1011.2
2017-07-04T12:41:59.788Z,1011.2
2017-07-04T12:43:21.235Z,1011.1
2017-07-04T12:44:22.609Z,1011.2
2017-07-04T12:45:44.079Z,1011.2
2017-07-04T12:46:45.453Z,1011.1
2017-07-04T12:48:06.922Z,1011.1
2017-07-04T12:49:08.293Z,1011.2
2017-07-04T12:50:29.773Z,1011.1
2017-07-04T12:51:31.150Z,1011.1
2017-07-04T12:52:52.624Z,1011.2
2017-07-04T12:53:53.999Z,1011.1
2017-07-04T12:55:15.475Z,1011.1
2017-07-04T12:56:16.854Z,1011.1
2017-07-04T12:57:38.349Z,1011.1
2017-07-04T12:58:39.722Z,1011.1
2017-07-04T13:00:01.198Z,1011.1
2017-07-04T13:01:02.572Z,1011.1
2017-07-04T13:02:24.040Z,1011.1
2017-07-04T13:03:25.415Z,1011.1
2017-07-04T13:04:46.895Z,1011.1
2017-07-04T13:05:48.270Z,1011.1
2017-07-04T13:07:09.739Z,1011.0
2017-07-04T13:08:11.110Z,1011.0
2017-07-04T13:09:32.586Z,1011.1
2017-07-04T13:10:33.960Z,1011.0
2017-07-04T13:11:55.450Z,1011.0
2017-07-04T13:12:56.826Z,1011.1
2017-07-04T13:14:18.297Z,1011.0
2017-07-04T13:15:19.669Z,1011.0
2017-07-04T13:16:41.139Z,1010.9
2017-07-04T13:17:42.511Z,1010.9
2017-07-04T13:19:04.010Z,1010.9
2017-07-04T13:20:05.383Z,1010.9
2017-07-04T13:21:26.885Z,1010.9
2017-07-04T13:22:28.257Z,1010.9
2017-07-04T13:23:49.720Z,1010.9
2017-07-04T13:24:51.090Z,1010.9
2017-07-04T13:26:12.580Z,1010.8
2017-07-04T13:27:13.954Z,1010.9
2017-07-04T13:28:35.422Z,1010.9
2017-07-04T13:29:36.794Z,1010.9
2017-07-04T13:30:58.260Z,1010.9
2017-07-04T13:31:59.633Z,1010.9
2017-07-04T13:33:21.115Z,1010.8
2017-07-04T13:34:22.493Z,1010.9
2017-07-04T13:35:43.963Z,1010.8
2017-07-04T13:36:45.334Z,1010.8
2017-07-04T13:38:06.803Z,1010.8
2017-07-04T13:39:08.174Z,1010.8